BCS460 LIMC-LEBL
Flight info
| Callsign | BCS460 |
|---|---|
| Flight time | 1h 22m |
| Altitude | 38000 |
| Route | NEDED DCT GEKBA DCT VAMTU DCT KOLON DCT GANGU DCT PADKO DCT DIVKO DCT NILDU DCT BISBA |
| Aircraft | B738/M-SDE2E3FGHIRWXY/LB1 |
Departure
| Time | 2026-05-06 09:49 |
|---|---|
| Airport | Milan Malpensa International Airport (LIMC) |
Arrival
| Time | 2026-05-06 11:11 |
|---|---|
| Airport | Josep Tarradellas Barcelona-El Prat Airport (LEBL) |
| Time | Latitude | Longitude | Altitude | Speed | Heading |
|---|---|---|---|---|---|
| 2026-05-06 09:05 | 45.61490 | 8.72001 | 740 ft | 0 kts | 259° |
| 2026-05-06 09:31 | 45.61491 | 8.72012 | 712 ft | 2 kts | 259° |
| 2026-05-06 09:32 | 45.61494 | 8.72030 | 698 ft | 2 kts | 259° |
| 2026-05-06 09:32 | 45.61496 | 8.72048 | 729 ft | 2 kts | 258° |
| 2026-05-06 09:32 | 45.61499 | 8.72066 | 714 ft | 2 kts | 258° |
| 2026-05-06 09:32 | 45.61501 | 8.72084 | 717 ft | 2 kts | 258° |
| 2026-05-06 09:33 | 45.61504 | 8.72102 | 717 ft | 2 kts | 258° |
| 2026-05-06 09:33 | 45.61506 | 8.72120 | 717 ft | 2 kts | 258° |
| 2026-05-06 09:33 | 45.61509 | 8.72136 | 717 ft | 1 kts | 244° |
| 2026-05-06 09:33 | 45.61515 | 8.72148 | 716 ft | 1 kts | 210° |
| 2026-05-06 09:34 | 45.61521 | 8.72152 | 718 ft | 2 kts | 164° |
| 2026-05-06 09:34 | 45.61531 | 8.72146 | 718 ft | 2 kts | 156° |
| 2026-05-06 09:34 | 45.61541 | 8.72140 | 717 ft | 2 kts | 164° |
| 2026-05-06 09:34 | 45.61544 | 8.72139 | 718 ft | 0 kts | 167° |
| 2026-05-06 09:37 | 45.61522 | 8.72146 | 713 ft | 7 kts | 168° |
| 2026-05-06 09:38 | 45.61461 | 8.72162 | 712 ft | 11 kts | 170° |
| 2026-05-06 09:38 | 45.61378 | 8.72185 | 714 ft | 13 kts | 169° |
| 2026-05-06 09:38 | 45.61288 | 8.72209 | 705 ft | 13 kts | 169° |
| 2026-05-06 09:38 | 45.61201 | 8.72233 | 703 ft | 13 kts | 168° |
| 2026-05-06 09:39 | 45.61116 | 8.72258 | 699 ft | 12 kts | 168° |
| 2026-05-06 09:39 | 45.61033 | 8.72280 | 696 ft | 12 kts | 170° |
| 2026-05-06 09:39 | 45.60952 | 8.72302 | 702 ft | 12 kts | 168° |
| 2026-05-06 09:39 | 45.60874 | 8.72324 | 701 ft | 11 kts | 168° |
| 2026-05-06 09:40 | 45.60797 | 8.72346 | 693 ft | 11 kts | 169° |
| 2026-05-06 09:40 | 45.60721 | 8.72366 | 702 ft | 11 kts | 169° |
| 2026-05-06 09:40 | 45.60636 | 8.72515 | 700 ft | 10 kts | 94° |
| 2026-05-06 09:41 | 45.60630 | 8.72614 | 699 ft | 10 kts | 97° |
| 2026-05-06 09:41 | 45.60623 | 8.72711 | 698 ft | 10 kts | 95° |
| 2026-05-06 09:41 | 45.60616 | 8.72806 | 702 ft | 9 kts | 97° |
| 2026-05-06 09:41 | 45.60609 | 8.72898 | 694 ft | 9 kts | 96° |
| 2026-05-06 09:42 | 45.60603 | 8.72986 | 702 ft | 9 kts | 95° |
| 2026-05-06 09:42 | 45.60597 | 8.73073 | 700 ft | 9 kts | 96° |
| 2026-05-06 09:42 | 45.60592 | 8.73158 | 699 ft | 8 kts | 86° |
| 2026-05-06 09:42 | 45.60609 | 8.73236 | 700 ft | 8 kts | 55° |
| 2026-05-06 09:43 | 45.60659 | 8.73287 | 701 ft | 10 kts | 25° |
| 2026-05-06 09:43 | 45.60735 | 8.73331 | 701 ft | 13 kts | 23° |
| 2026-05-06 09:43 | 45.60832 | 8.73389 | 700 ft | 17 kts | 22° |
| 2026-05-06 09:43 | 45.60955 | 8.73394 | 697 ft | 19 kts | 348° |
| 2026-05-06 09:44 | 45.61085 | 8.73358 | 701 ft | 19 kts | 348° |
| 2026-05-06 09:44 | 45.61212 | 8.73324 | 702 ft | 18 kts | 349° |
| 2026-05-06 09:44 | 45.61336 | 8.73289 | 705 ft | 18 kts | 351° |
| 2026-05-06 09:44 | 45.61455 | 8.73257 | 701 ft | 17 kts | 348° |
| 2026-05-06 09:45 | 45.61569 | 8.73226 | 704 ft | 16 kts | 0° |
| 2026-05-06 09:45 | 45.61627 | 8.73343 | 707 ft | 14 kts | 80° |
| 2026-05-06 09:45 | 45.61613 | 8.73476 | 696 ft | 15 kts | 121° |
| 2026-05-06 09:45 | 45.61589 | 8.73566 | 700 ft | 0 kts | 99° |
| 2026-05-06 09:47 | 45.61589 | 8.73577 | 697 ft | 0 kts | 93° |
| 2026-05-06 09:48 | 45.61589 | 8.73604 | 704 ft | 6 kts | 88° |
| 2026-05-06 09:48 | 45.61605 | 8.73694 | 695 ft | 12 kts | 61° |
| 2026-05-06 09:48 | 45.61691 | 8.73717 | 701 ft | 15 kts | 347° |
| 2026-05-06 09:48 | 45.61840 | 8.73677 | 708 ft | 44 kts | 349° |
| 2026-05-06 09:49 | 45.62383 | 8.73528 | 724 ft | 113 kts | 349° |
| 2026-05-06 09:49 | 45.63352 | 8.73264 | 751 ft | 167 kts | 352° |
| 2026-05-06 09:49 | 45.64540 | 8.72922 | 1360 ft | 171 kts | 352° |
| 2026-05-06 09:49 | 45.65714 | 8.72635 | 2087 ft | 177 kts | 1° |
| 2026-05-06 09:50 | 45.66983 | 8.72599 | 2575 ft | 195 kts | 6° |
| 2026-05-06 09:50 | 45.68440 | 8.72611 | 2860 ft | 223 kts | 4° |
| 2026-05-06 09:50 | 45.70079 | 8.72612 | 3066 ft | 245 kts | 3° |
| 2026-05-06 09:50 | 45.71803 | 8.72515 | 3572 ft | 251 kts | 350° |
| 2026-05-06 09:51 | 45.73319 | 8.71373 | 4146 ft | 253 kts | 307° |
| 2026-05-06 09:51 | 45.74049 | 8.69208 | 4989 ft | 239 kts | 275° |
| 2026-05-06 09:51 | 45.74009 | 8.66854 | 5634 ft | 233 kts | 249° |
| 2026-05-06 09:51 | 45.73457 | 8.64695 | 6531 ft | 231 kts | 240° |
| 2026-05-06 09:52 | 45.72674 | 8.62732 | 7298 ft | 240 kts | 237° |
| 2026-05-06 09:52 | 45.71804 | 8.60684 | 8061 ft | 239 kts | 233° |
| 2026-05-06 09:52 | 45.70862 | 8.58669 | 8532 ft | 254 kts | 234° |
| 2026-05-06 09:52 | 45.69854 | 8.56465 | 8812 ft | 273 kts | 232° |
| 2026-05-06 09:53 | 45.68844 | 8.54189 | 9975 ft | 269 kts | 246° |
| 2026-05-06 09:53 | 45.67942 | 8.51854 | 10647 ft | 278 kts | 224° |
| 2026-05-06 09:53 | 45.66229 | 8.50449 | 10813 ft | 299 kts | 191° |
| 2026-05-06 09:53 | 45.64127 | 8.49832 | 10999 ft | 320 kts | 197° |
| 2026-05-06 09:54 | 45.61980 | 8.48652 | 11175 ft | 340 kts | 203° |
| 2026-05-06 09:54 | 45.59732 | 8.47346 | 11413 ft | 356 kts | 201° |
| 2026-05-06 09:54 | 45.57413 | 8.46042 | 11990 ft | 361 kts | 202° |
| 2026-05-06 09:54 | 45.55074 | 8.44716 | 12717 ft | 362 kts | 201° |
| 2026-05-06 09:55 | 45.52700 | 8.43480 | 13462 ft | 364 kts | 200° |
| 2026-05-06 09:55 | 45.50329 | 8.42313 | 14128 ft | 366 kts | 199° |
| 2026-05-06 09:55 | 45.47904 | 8.41136 | 14797 ft | 369 kts | 199° |
| 2026-05-06 09:55 | 45.45474 | 8.39955 | 15473 ft | 371 kts | 199° |
| 2026-05-06 09:56 | 45.43023 | 8.38757 | 16130 ft | 374 kts | 199° |
| 2026-05-06 09:56 | 45.40554 | 8.37545 | 16798 ft | 376 kts | 199° |
| 2026-05-06 09:56 | 45.38074 | 8.36324 | 17461 ft | 379 kts | 199° |
| 2026-05-06 09:56 | 45.35571 | 8.35090 | 18107 ft | 381 kts | 199° |
| 2026-05-06 09:57 | 45.33059 | 8.33851 | 18676 ft | 383 kts | 199° |
| 2026-05-06 09:57 | 45.30539 | 8.32608 | 19294 ft | 383 kts | 200° |
| 2026-05-06 09:57 | 45.28053 | 8.31384 | 19914 ft | 383 kts | 200° |
| 2026-05-06 09:57 | 45.25540 | 8.30147 | 20554 ft | 382 kts | 201° |
| 2026-05-06 09:58 | 45.23029 | 8.28913 | 21170 ft | 382 kts | 201° |
| 2026-05-06 09:58 | 45.20509 | 8.27674 | 21717 ft | 383 kts | 201° |
| 2026-05-06 09:58 | 45.17983 | 8.26434 | 22247 ft | 385 kts | 202° |
| 2026-05-06 09:58 | 45.15448 | 8.25191 | 22778 ft | 386 kts | 202° |
| 2026-05-06 09:59 | 45.12914 | 8.23950 | 23371 ft | 385 kts | 202° |
| 2026-05-06 09:59 | 45.10364 | 8.22755 | 23771 ft | 389 kts | 199° |
| 2026-05-06 09:59 | 45.07726 | 8.21974 | 24084 ft | 395 kts | 194° |
| 2026-05-06 09:59 | 45.04996 | 8.21428 | 24469 ft | 398 kts | 192° |
| 2026-05-06 10:00 | 45.02247 | 8.20930 | 24842 ft | 400 kts | 192° |
| 2026-05-06 10:00 | 44.99492 | 8.20419 | 25221 ft | 400 kts | 192° |
| 2026-05-06 10:00 | 44.96725 | 8.19877 | 25584 ft | 402 kts | 193° |
| 2026-05-06 10:00 | 44.93956 | 8.19308 | 25937 ft | 403 kts | 193° |
| 2026-05-06 10:01 | 44.91175 | 8.18720 | 26270 ft | 405 kts | 193° |
| 2026-05-06 10:01 | 44.88382 | 8.18122 | 26589 ft | 407 kts | 193° |
| 2026-05-06 10:01 | 44.85608 | 8.17525 | 26914 ft | 409 kts | 193° |
| 2026-05-06 10:01 | 44.82796 | 8.16921 | 27238 ft | 410 kts | 193° |
| 2026-05-06 10:02 | 44.79967 | 8.16315 | 27553 ft | 412 kts | 193° |
| 2026-05-06 10:02 | 44.77135 | 8.15705 | 27902 ft | 412 kts | 193° |
| 2026-05-06 10:02 | 44.74305 | 8.15102 | 28339 ft | 410 kts | 193° |
| 2026-05-06 10:02 | 44.71492 | 8.14502 | 28822 ft | 407 kts | 194° |
| 2026-05-06 10:03 | 44.68779 | 8.13496 | 29224 ft | 400 kts | 206° |
| 2026-05-06 10:03 | 44.66412 | 8.11611 | 29704 ft | 395 kts | 214° |
| 2026-05-06 10:03 | 44.64117 | 8.09524 | 30145 ft | 392 kts | 213° |
| 2026-05-06 10:03 | 44.61804 | 8.07518 | 30512 ft | 391 kts | 213° |
| 2026-05-06 10:04 | 44.59477 | 8.05528 | 30816 ft | 392 kts | 212° |
| 2026-05-06 10:04 | 44.57153 | 8.03548 | 31189 ft | 390 kts | 212° |
| 2026-05-06 10:04 | 44.54840 | 8.01576 | 31577 ft | 388 kts | 212° |
| 2026-05-06 10:04 | 44.52534 | 7.99610 | 31965 ft | 386 kts | 212° |
| 2026-05-06 10:05 | 44.50242 | 7.97654 | 32299 ft | 386 kts | 213° |
| 2026-05-06 10:05 | 44.47948 | 7.95696 | 32577 ft | 387 kts | 212° |
| 2026-05-06 10:05 | 44.45636 | 7.93725 | 32759 ft | 390 kts | 212° |
| 2026-05-06 10:05 | 44.43350 | 7.91778 | 33022 ft | 391 kts | 212° |
| 2026-05-06 10:06 | 44.41028 | 7.89802 | 33360 ft | 389 kts | 212° |
| 2026-05-06 10:06 | 44.38718 | 7.87840 | 33689 ft | 388 kts | 212° |
| 2026-05-06 10:06 | 44.36414 | 7.85884 | 33932 ft | 388 kts | 212° |
| 2026-05-06 10:06 | 44.34105 | 7.83922 | 34101 ft | 389 kts | 212° |
| 2026-05-06 10:07 | 44.31785 | 7.81953 | 34265 ft | 391 kts | 212° |
| 2026-05-06 10:07 | 44.29460 | 7.79983 | 34486 ft | 391 kts | 212° |
| 2026-05-06 10:07 | 44.27152 | 7.77960 | 34679 ft | 392 kts | 216° |
| 2026-05-06 10:07 | 44.25062 | 7.75593 | 34820 ft | 393 kts | 222° |
| 2026-05-06 10:08 | 44.23043 | 7.73012 | 34951 ft | 394 kts | 222° |
| 2026-05-06 10:08 | 44.21011 | 7.70459 | 35159 ft | 394 kts | 221° |
| 2026-05-06 10:08 | 44.18966 | 7.67911 | 35416 ft | 394 kts | 221° |
| 2026-05-06 10:08 | 44.16915 | 7.65373 | 35631 ft | 395 kts | 221° |
| 2026-05-06 10:09 | 44.14868 | 7.62823 | 35806 ft | 395 kts | 223° |
| 2026-05-06 10:09 | 44.12997 | 7.60015 | 35989 ft | 396 kts | 229° |
| 2026-05-06 10:09 | 44.11217 | 7.57078 | 36173 ft | 399 kts | 229° |
| 2026-05-06 10:09 | 44.09397 | 7.54143 | 36194 ft | 402 kts | 228° |
| 2026-05-06 10:10 | 44.07560 | 7.51211 | 36419 ft | 402 kts | 228° |
| 2026-05-06 10:10 | 44.05748 | 7.48331 | 36662 ft | 401 kts | 228° |
| 2026-05-06 10:10 | 44.03906 | 7.45402 | 36823 ft | 402 kts | 228° |
| 2026-05-06 10:10 | 44.02065 | 7.42475 | 36988 ft | 403 kts | 228° |
| 2026-05-06 10:11 | 44.00215 | 7.39533 | 37172 ft | 404 kts | 228° |
| 2026-05-06 10:11 | 43.98365 | 7.36594 | 37340 ft | 404 kts | 229° |
| 2026-05-06 10:11 | 43.96520 | 7.33662 | 37632 ft | 402 kts | 228° |
| 2026-05-06 10:11 | 43.94677 | 7.30738 | 37806 ft | 403 kts | 229° |
| 2026-05-06 10:12 | 43.90987 | 7.24893 | 37861 ft | 407 kts | 229° |
| 2026-05-06 10:12 | 43.87263 | 7.19001 | 37883 ft | 406 kts | 229° |
| 2026-05-06 10:13 | 43.83537 | 7.13121 | 37868 ft | 406 kts | 229° |
| 2026-05-06 10:13 | 43.79820 | 7.07270 | 37858 ft | 404 kts | 228° |
| 2026-05-06 10:14 | 43.76113 | 7.01438 | 37892 ft | 404 kts | 229° |
| 2026-05-06 10:14 | 43.72582 | 6.95468 | 37886 ft | 404 kts | 237° |
| 2026-05-06 10:15 | 43.70153 | 6.88466 | 37891 ft | 406 kts | 246° |
| 2026-05-06 10:15 | 43.68055 | 6.81212 | 37885 ft | 407 kts | 246° |
| 2026-05-06 10:16 | 43.65913 | 6.73961 | 37874 ft | 408 kts | 245° |
| 2026-05-06 10:16 | 43.63776 | 6.66761 | 37869 ft | 408 kts | 245° |
| 2026-05-06 10:17 | 43.61623 | 6.59517 | 37875 ft | 408 kts | 245° |
| 2026-05-06 10:17 | 43.59469 | 6.52286 | 37890 ft | 408 kts | 245° |
| 2026-05-06 10:18 | 43.57309 | 6.45055 | 37924 ft | 408 kts | 245° |
| 2026-05-06 10:18 | 43.55144 | 6.37828 | 37917 ft | 408 kts | 245° |
| 2026-05-06 10:19 | 43.52991 | 6.30659 | 37908 ft | 408 kts | 245° |
| 2026-05-06 10:19 | 43.50817 | 6.23441 | 37907 ft | 408 kts | 245° |
| 2026-05-06 10:20 | 43.48640 | 6.16228 | 37907 ft | 408 kts | 245° |
| 2026-05-06 10:20 | 43.46457 | 6.09020 | 37886 ft | 408 kts | 245° |
| 2026-05-06 10:21 | 43.44273 | 6.01826 | 37917 ft | 408 kts | 245° |
| 2026-05-06 10:21 | 43.42098 | 5.94674 | 37915 ft | 408 kts | 245° |
| 2026-05-06 10:22 | 43.39905 | 5.87480 | 37920 ft | 408 kts | 245° |
| 2026-05-06 10:22 | 43.37704 | 5.80278 | 37921 ft | 408 kts | 245° |
| 2026-05-06 10:23 | 43.35501 | 5.73090 | 37926 ft | 409 kts | 245° |
| 2026-05-06 10:23 | 43.33304 | 5.65941 | 37937 ft | 409 kts | 245° |
| 2026-05-06 10:24 | 43.31082 | 5.58730 | 37936 ft | 411 kts | 245° |
| 2026-05-06 10:24 | 43.28849 | 5.51503 | 37924 ft | 411 kts | 245° |
| 2026-05-06 10:25 | 43.26613 | 5.44284 | 37930 ft | 411 kts | 245° |
| 2026-05-06 10:25 | 43.24376 | 5.37081 | 37934 ft | 410 kts | 245° |
| 2026-05-06 10:26 | 43.22159 | 5.29977 | 37950 ft | 410 kts | 245° |
| 2026-05-06 10:26 | 43.19900 | 5.22792 | 37946 ft | 410 kts | 245° |
| 2026-05-06 10:27 | 43.17637 | 5.15613 | 37941 ft | 411 kts | 245° |
| 2026-05-06 10:27 | 43.15370 | 5.08433 | 37942 ft | 411 kts | 245° |
| 2026-05-06 10:28 | 43.13234 | 5.01684 | 37943 ft | 411 kts | 245° |
| 2026-05-06 10:28 | 43.10954 | 4.94501 | 37952 ft | 411 kts | 245° |
| 2026-05-06 10:29 | 43.08675 | 4.87335 | 37944 ft | 411 kts | 245° |
| 2026-05-06 10:29 | 43.06275 | 4.80243 | 37935 ft | 411 kts | 238° |
| 2026-05-06 10:30 | 43.02767 | 4.74175 | 37936 ft | 411 kts | 224° |
| 2026-05-06 10:30 | 42.98457 | 4.69041 | 37948 ft | 411 kts | 223° |
| 2026-05-06 10:31 | 42.94156 | 4.63884 | 37949 ft | 412 kts | 223° |
| 2026-05-06 10:31 | 42.89860 | 4.58710 | 37954 ft | 411 kts | 223° |
| 2026-05-06 10:32 | 42.85570 | 4.53548 | 37964 ft | 412 kts | 223° |
| 2026-05-06 10:32 | 42.81298 | 4.48418 | 37961 ft | 412 kts | 223° |
| 2026-05-06 10:33 | 42.76986 | 4.43251 | 37958 ft | 413 kts | 223° |
| 2026-05-06 10:33 | 42.72668 | 4.38089 | 37963 ft | 413 kts | 223° |
| 2026-05-06 10:34 | 42.68317 | 4.32894 | 37423 ft | 419 kts | 223° |
| 2026-05-06 10:34 | 42.66177 | 4.30345 | 36818 ft | 415 kts | 223° |
| 2026-05-06 10:34 | 42.64018 | 4.27774 | 36313 ft | 411 kts | 223° |
| 2026-05-06 10:35 | 42.61874 | 4.25225 | 35695 ft | 409 kts | 223° |
| 2026-05-06 10:35 | 42.59737 | 4.22687 | 35034 ft | 408 kts | 223° |
| 2026-05-06 10:35 | 42.57615 | 4.20167 | 34482 ft | 403 kts | 223° |
| 2026-05-06 10:35 | 42.55498 | 4.17656 | 33748 ft | 404 kts | 223° |
| 2026-05-06 10:36 | 42.53398 | 4.15168 | 33012 ft | 400 kts | 223° |
| 2026-05-06 10:36 | 42.51307 | 4.12692 | 32379 ft | 397 kts | 223° |
| 2026-05-06 10:36 | 42.49228 | 4.10233 | 31710 ft | 395 kts | 223° |
| 2026-05-06 10:36 | 42.47188 | 4.07822 | 31119 ft | 392 kts | 223° |
| 2026-05-06 10:37 | 42.45153 | 4.05420 | 30625 ft | 386 kts | 223° |
| 2026-05-06 10:37 | 42.43139 | 4.03044 | 30158 ft | 381 kts | 223° |
| 2026-05-06 10:37 | 42.41155 | 4.00706 | 29609 ft | 376 kts | 223° |
| 2026-05-06 10:37 | 42.39201 | 3.98406 | 29114 ft | 369 kts | 223° |
| 2026-05-06 10:38 | 42.37280 | 3.96144 | 28631 ft | 363 kts | 223° |
| 2026-05-06 10:38 | 42.35388 | 3.93920 | 28161 ft | 357 kts | 224° |
| 2026-05-06 10:38 | 42.33525 | 3.91730 | 27649 ft | 352 kts | 223° |
| 2026-05-06 10:38 | 42.31692 | 3.89577 | 27232 ft | 347 kts | 223° |
| 2026-05-06 10:39 | 42.29898 | 3.87471 | 26775 ft | 343 kts | 223° |
| 2026-05-06 10:39 | 42.28107 | 3.85372 | 26332 ft | 341 kts | 223° |
| 2026-05-06 10:39 | 42.26295 | 3.83249 | 25882 ft | 351 kts | 223° |
| 2026-05-06 10:39 | 42.24421 | 3.81053 | 25614 ft | 360 kts | 223° |
| 2026-05-06 10:40 | 42.22525 | 3.78836 | 25216 ft | 360 kts | 223° |
| 2026-05-06 10:40 | 42.20646 | 3.76642 | 24776 ft | 355 kts | 223° |
| 2026-05-06 10:40 | 42.18786 | 3.74472 | 24291 ft | 351 kts | 223° |
| 2026-05-06 10:40 | 42.16978 | 3.72363 | 23833 ft | 347 kts | 223° |
| 2026-05-06 10:41 | 42.15165 | 3.70248 | 23324 ft | 343 kts | 223° |
| 2026-05-06 10:41 | 42.13368 | 3.68152 | 22785 ft | 340 kts | 223° |
| 2026-05-06 10:41 | 42.11594 | 3.66088 | 22452 ft | 332 kts | 223° |
| 2026-05-06 10:41 | 42.09887 | 3.64103 | 22330 ft | 320 kts | 224° |
| 2026-05-06 10:42 | 42.08420 | 3.61915 | 22017 ft | 313 kts | 238° |
| 2026-05-06 10:42 | 42.07467 | 3.59273 | 21447 ft | 316 kts | 246° |
| 2026-05-06 10:42 | 42.06605 | 3.56585 | 21080 ft | 312 kts | 245° |
| 2026-05-06 10:42 | 42.05737 | 3.53923 | 20702 ft | 309 kts | 245° |
| 2026-05-06 10:43 | 42.04869 | 3.51272 | 20286 ft | 310 kts | 246° |
| 2026-05-06 10:43 | 42.04008 | 3.48655 | 19894 ft | 312 kts | 246° |
| 2026-05-06 10:43 | 42.03117 | 3.45947 | 19500 ft | 324 kts | 246° |
| 2026-05-06 10:44 | 42.01266 | 3.40347 | 18640 ft | 327 kts | 246° |
| 2026-05-06 10:44 | 42.00339 | 3.37554 | 18081 ft | 328 kts | 246° |
| 2026-05-06 10:44 | 41.99406 | 3.34756 | 17579 ft | 326 kts | 246° |
| 2026-05-06 10:44 | 41.98479 | 3.31979 | 17114 ft | 324 kts | 246° |
| 2026-05-06 10:45 | 41.97561 | 3.29231 | 16700 ft | 321 kts | 246° |
| 2026-05-06 10:45 | 41.96662 | 3.26543 | 16290 ft | 318 kts | 246° |
| 2026-05-06 10:45 | 41.95761 | 3.23850 | 15889 ft | 316 kts | 246° |
| 2026-05-06 10:45 | 41.94859 | 3.21175 | 15478 ft | 313 kts | 245° |
| 2026-05-06 10:46 | 41.93771 | 3.18647 | 15047 ft | 312 kts | 237° |
| 2026-05-06 10:46 | 41.92509 | 3.16288 | 14660 ft | 311 kts | 234° |
| 2026-05-06 10:46 | 41.91217 | 3.13961 | 14262 ft | 310 kts | 234° |
| 2026-05-06 10:46 | 41.89933 | 3.11642 | 13869 ft | 309 kts | 234° |
| 2026-05-06 10:47 | 41.88660 | 3.09317 | 13439 ft | 307 kts | 235° |
| 2026-05-06 10:47 | 41.87423 | 3.07036 | 13045 ft | 306 kts | 235° |
| 2026-05-06 10:47 | 41.86183 | 3.04737 | 12622 ft | 301 kts | 236° |
| 2026-05-06 10:47 | 41.84983 | 3.02504 | 12262 ft | 290 kts | 236° |
| 2026-05-06 10:48 | 41.83826 | 3.00338 | 11903 ft | 280 kts | 236° |
| 2026-05-06 10:48 | 41.82711 | 2.98257 | 11571 ft | 271 kts | 236° |
| 2026-05-06 10:48 | 41.81623 | 2.96229 | 11215 ft | 264 kts | 236° |
| 2026-05-06 10:48 | 41.80567 | 2.94258 | 10883 ft | 257 kts | 237° |
| 2026-05-06 10:49 | 41.79536 | 2.92335 | 10579 ft | 250 kts | 237° |
| 2026-05-06 10:49 | 41.78566 | 2.90524 | 10476 ft | 236 kts | 237° |
| 2026-05-06 10:49 | 41.77634 | 2.88787 | 10340 ft | 222 kts | 237° |
| 2026-05-06 10:49 | 41.76760 | 2.87160 | 10246 ft | 209 kts | 238° |
| 2026-05-06 10:50 | 41.75937 | 2.85630 | 10151 ft | 195 kts | 238° |
| 2026-05-06 10:50 | 41.75168 | 2.84199 | 10058 ft | 187 kts | 238° |
| 2026-05-06 10:50 | 41.74390 | 2.82747 | 10019 ft | 192 kts | 238° |
| 2026-05-06 10:50 | 41.73617 | 2.81306 | 9862 ft | 190 kts | 238° |
| 2026-05-06 10:51 | 41.72828 | 2.79835 | 9823 ft | 206 kts | 237° |
| 2026-05-06 10:51 | 41.71953 | 2.78204 | 9858 ft | 221 kts | 237° |
| 2026-05-06 10:51 | 41.71067 | 2.76566 | 9839 ft | 219 kts | 237° |
| 2026-05-06 10:51 | 41.70174 | 2.74906 | 9722 ft | 224 kts | 237° |
| 2026-05-06 10:52 | 41.69207 | 2.73104 | 9675 ft | 253 kts | 237° |
| 2026-05-06 10:52 | 41.68158 | 2.71156 | 9567 ft | 260 kts | 237° |
| 2026-05-06 10:52 | 41.67104 | 2.69211 | 9460 ft | 255 kts | 235° |
| 2026-05-06 10:52 | 41.66096 | 2.67358 | 9361 ft | 243 kts | 237° |
| 2026-05-06 10:53 | 41.65127 | 2.65565 | 9291 ft | 231 kts | 237° |
| 2026-05-06 10:53 | 41.64206 | 2.63853 | 9214 ft | 225 kts | 238° |
| 2026-05-06 10:53 | 41.63523 | 2.61960 | 9203 ft | 236 kts | 255° |
| 2026-05-06 10:53 | 41.63050 | 2.59781 | 9146 ft | 254 kts | 254° |
| 2026-05-06 10:54 | 41.62510 | 2.57522 | 9055 ft | 257 kts | 253° |
| 2026-05-06 10:54 | 41.61952 | 2.55248 | 8969 ft | 257 kts | 253° |
| 2026-05-06 10:54 | 41.61390 | 2.52980 | 8890 ft | 257 kts | 253° |
| 2026-05-06 10:54 | 41.60824 | 2.50708 | 8812 ft | 257 kts | 253° |
| 2026-05-06 10:55 | 41.60261 | 2.48449 | 8738 ft | 257 kts | 253° |
| 2026-05-06 10:55 | 41.59696 | 2.46180 | 8647 ft | 257 kts | 253° |
| 2026-05-06 10:55 | 41.59133 | 2.43919 | 8592 ft | 257 kts | 252° |
| 2026-05-06 10:55 | 41.58567 | 2.41657 | 8508 ft | 257 kts | 252° |
| 2026-05-06 10:56 | 41.58008 | 2.39424 | 8442 ft | 257 kts | 252° |
| 2026-05-06 10:56 | 41.57442 | 2.37167 | 8366 ft | 256 kts | 251° |
| 2026-05-06 10:56 | 41.56772 | 2.34957 | 8261 ft | 258 kts | 241° |
| 2026-05-06 10:56 | 41.55779 | 2.32981 | 8221 ft | 256 kts | 237° |
| 2026-05-06 10:57 | 41.54809 | 2.30989 | 8120 ft | 253 kts | 239° |
| 2026-05-06 10:57 | 41.53877 | 2.29042 | 8029 ft | 245 kts | 235° |
| 2026-05-06 10:57 | 41.52601 | 2.27608 | 7942 ft | 239 kts | 204° |
| 2026-05-06 10:57 | 41.50970 | 2.27231 | 7847 ft | 242 kts | 182° |
| 2026-05-06 10:58 | 41.49303 | 2.27663 | 7697 ft | 249 kts | 161° |
| 2026-05-06 10:58 | 41.47721 | 2.28628 | 7568 ft | 251 kts | 157° |
| 2026-05-06 10:58 | 41.46308 | 2.29943 | 7374 ft | 258 kts | 131° |
| 2026-05-06 10:58 | 41.45644 | 2.32144 | 7223 ft | 261 kts | 93° |
| 2026-05-06 10:59 | 41.46059 | 2.34455 | 7097 ft | 258 kts | 61° |
| 2026-05-06 10:59 | 41.46884 | 2.36566 | 6959 ft | 257 kts | 64° |
| 2026-05-06 10:59 | 41.47636 | 2.38731 | 6796 ft | 258 kts | 65° |
| 2026-05-06 10:59 | 41.48380 | 2.40900 | 6637 ft | 258 kts | 65° |
| 2026-05-06 11:00 | 41.49128 | 2.43084 | 6477 ft | 259 kts | 65° |
| 2026-05-06 11:00 | 41.49874 | 2.45268 | 6328 ft | 259 kts | 65° |
| 2026-05-06 11:00 | 41.50613 | 2.47433 | 6148 ft | 260 kts | 65° |
| 2026-05-06 11:00 | 41.51360 | 2.49622 | 5988 ft | 259 kts | 65° |
| 2026-05-06 11:01 | 41.52106 | 2.51810 | 5821 ft | 258 kts | 65° |
| 2026-05-06 11:01 | 41.52848 | 2.53986 | 5685 ft | 256 kts | 65° |
| 2026-05-06 11:01 | 41.53458 | 2.56199 | 5536 ft | 253 kts | 83° |
| 2026-05-06 11:01 | 41.53183 | 2.58438 | 5428 ft | 244 kts | 121° |
| 2026-05-06 11:02 | 41.52090 | 2.60084 | 5293 ft | 235 kts | 148° |
| 2026-05-06 11:02 | 41.50611 | 2.60921 | 5157 ft | 232 kts | 174° |
| 2026-05-06 11:02 | 41.49024 | 2.60802 | 5013 ft | 227 kts | 200° |
| 2026-05-06 11:02 | 41.47702 | 2.59817 | 4874 ft | 217 kts | 223° |
| 2026-05-06 11:03 | 41.46788 | 2.58283 | 4748 ft | 207 kts | 244° |
| 2026-05-06 11:03 | 41.46243 | 2.56573 | 4626 ft | 195 kts | 246° |
| 2026-05-06 11:03 | 41.45702 | 2.54961 | 4484 ft | 187 kts | 246° |
| 2026-05-06 11:03 | 41.45165 | 2.53366 | 4354 ft | 193 kts | 246° |
| 2026-05-06 11:04 | 41.44588 | 2.51650 | 4248 ft | 209 kts | 246° |
| 2026-05-06 11:04 | 41.43987 | 2.49865 | 4141 ft | 213 kts | 246° |
| 2026-05-06 11:04 | 41.43394 | 2.48106 | 4029 ft | 203 kts | 246° |
| 2026-05-06 11:04 | 41.42827 | 2.46428 | 3873 ft | 194 kts | 246° |
| 2026-05-06 11:05 | 41.42276 | 2.44798 | 3753 ft | 197 kts | 246° |
| 2026-05-06 11:05 | 41.41702 | 2.43097 | 3633 ft | 208 kts | 246° |
| 2026-05-06 11:05 | 41.41099 | 2.41315 | 3522 ft | 213 kts | 246° |
| 2026-05-06 11:05 | 41.40505 | 2.39500 | 3403 ft | 214 kts | 247° |
| 2026-05-06 11:06 | 41.39919 | 2.37693 | 3254 ft | 210 kts | 247° |
| 2026-05-06 11:06 | 41.39333 | 2.35951 | 3151 ft | 201 kts | 246° |
| 2026-05-06 11:06 | 41.38767 | 2.34294 | 3005 ft | 192 kts | 246° |
| 2026-05-06 11:06 | 41.38221 | 2.32705 | 2878 ft | 188 kts | 246° |
| 2026-05-06 11:07 | 41.37676 | 2.31117 | 2784 ft | 188 kts | 245° |
| 2026-05-06 11:07 | 41.37154 | 2.29598 | 2664 ft | 177 kts | 245° |
| 2026-05-06 11:07 | 41.36657 | 2.28149 | 2564 ft | 167 kts | 245° |
| 2026-05-06 11:07 | 41.36194 | 2.26801 | 2485 ft | 152 kts | 245° |
| 2026-05-06 11:08 | 41.35760 | 2.25536 | 2428 ft | 150 kts | 245° |
| 2026-05-06 11:08 | 41.35328 | 2.24274 | 2280 ft | 151 kts | 245° |
| 2026-05-06 11:08 | 41.34899 | 2.23025 | 2066 ft | 145 kts | 245° |
| 2026-05-06 11:08 | 41.34486 | 2.21818 | 1874 ft | 145 kts | 245° |
| 2026-05-06 11:09 | 41.34067 | 2.20597 | 1699 ft | 147 kts | 245° |
| 2026-05-06 11:09 | 41.33653 | 2.19382 | 1491 ft | 145 kts | 244° |
| 2026-05-06 11:09 | 41.33234 | 2.18161 | 1295 ft | 146 kts | 244° |
| 2026-05-06 11:09 | 41.32812 | 2.16930 | 1140 ft | 144 kts | 243° |
| 2026-05-06 11:10 | 41.32387 | 2.15708 | 909 ft | 146 kts | 244° |
| 2026-05-06 11:10 | 41.31967 | 2.14470 | 720 ft | 147 kts | 245° |
| 2026-05-06 11:10 | 41.31560 | 2.13206 | 517 ft | 149 kts | 244° |
| 2026-05-06 11:10 | 41.31121 | 2.11958 | 319 ft | 149 kts | 243° |
| 2026-05-06 11:11 | 41.30684 | 2.10713 | 135 ft | 149 kts | 242° |
| 2026-05-06 11:11 | 41.30263 | 2.09469 | 17 ft | 140 kts | 244° |
| 2026-05-06 11:11 | 41.29913 | 2.08449 | 19 ft | 100 kts | 245° |
| 2026-05-06 11:11 | 41.29772 | 2.08026 | 17 ft | 36 kts | 252° |
| 2026-05-06 11:12 | 41.29753 | 2.07710 | 18 ft | 28 kts | 275° |
| 2026-05-06 11:12 | 41.29789 | 2.07625 | 16 ft | 0 kts | 331° |
| 2026-05-06 11:15 | 41.29805 | 2.07612 | 16 ft | 6 kts | 332° |
| 2026-05-06 11:15 | 41.29871 | 2.07570 | 17 ft | 13 kts | 338° |
| 2026-05-06 11:15 | 41.29909 | 2.07506 | 17 ft | 10 kts | 258° |
| 2026-05-06 11:16 | 41.29871 | 2.07393 | 17 ft | 16 kts | 246° |
| 2026-05-06 11:16 | 41.29826 | 2.07259 | 17 ft | 10 kts | 243° |
| 2026-05-06 11:16 | 41.29815 | 2.07220 | 17 ft | 6 kts | 261° |
| 2026-05-06 11:16 | 41.29844 | 2.07169 | 17 ft | 10 kts | 332° |
| 2026-05-06 11:17 | 41.29918 | 2.07115 | 18 ft | 14 kts | 319° |
| 2026-05-06 11:17 | 41.29906 | 2.06996 | 17 ft | 14 kts | 247° |
| 2026-05-06 11:17 | 41.29861 | 2.06951 | 17 ft | 7 kts | 146° |
| 2026-05-06 11:17 | 41.29830 | 2.06973 | 17 ft | 0 kts | 155° |